createdAt,value
2022-10-18T00:04:12.879Z,18.24
2022-10-18T00:09:14.373Z,18.82
2022-10-18T00:14:15.827Z,18.92
2022-10-18T00:19:17.285Z,18.74
2022-10-18T00:24:18.949Z,19.02
2022-10-18T00:29:20.388Z,19.03
2022-10-18T00:34:21.842Z,19.38
2022-10-18T00:39:23.292Z,19.21
2022-10-18T00:44:24.572Z,19.08
2022-10-18T00:49:34.036Z,18.87
2022-10-18T00:54:36.960Z,19.23
2022-10-18T00:59:38.403Z,18.76
2022-10-18T01:04:39.844Z,19.03
2022-10-18T01:09:51.085Z,19.11
2022-10-18T01:15:02.655Z,18.86
2022-10-18T01:20:38.355Z,19.26
2022-10-18T01:26:13.772Z,18.67
2022-10-18T01:31:16.481Z,18.95
2022-10-18T01:36:37.998Z,19.26
2022-10-18T01:41:39.743Z,19.07
2022-10-18T01:46:41.211Z,19.14
2022-10-18T01:51:42.671Z,19.15
2022-10-18T01:56:54.118Z,19.32
2022-10-18T02:02:06.868Z,19.06
2022-10-18T02:07:34.260Z,19.08
2022-10-18T02:12:35.733Z,19.35
2022-10-18T02:17:37.179Z,18.93
2022-10-18T02:22:39.631Z,19.15
2022-10-18T02:27:41.145Z,18.90
2022-10-18T02:32:49.307Z,19.21
2022-10-18T02:37:50.751Z,18.79
2022-10-18T02:42:56.835Z,19.00
2022-10-18T02:47:58.294Z,18.96
2022-10-18T02:52:59.750Z,19.06
2022-10-18T02:58:01.213Z,19.07
2022-10-18T03:03:02.657Z,19.22
2022-10-18T03:08:04.329Z,19.06
2022-10-18T03:13:05.806Z,19.05
2022-10-18T03:18:07.265Z,19.02
2022-10-18T03:23:08.762Z,18.96
2022-10-18T03:28:10.208Z,18.42
2022-10-18T03:33:11.652Z,19.04
2022-10-18T03:38:13.125Z,19.14
2022-10-18T03:43:14.568Z,19.24
2022-10-18T03:48:16.017Z,19.25
2022-10-18T03:53:17.481Z,19.24
2022-10-18T03:58:19.124Z,19.10
2022-10-18T04:03:21.072Z,18.96
2022-10-18T04:08:22.520Z,19.00
2022-10-18T04:13:23.974Z,18.98
2022-10-18T04:18:25.425Z,18.48
2022-10-18T04:23:26.881Z,18.44
2022-10-18T04:28:28.358Z,18.65
2022-10-18T04:33:29.834Z,18.93
2022-10-18T04:38:31.292Z,17.77
2022-10-18T04:43:32.802Z,18.08
2022-10-18T04:48:34.287Z,18.63
2022-10-18T04:53:35.747Z,18.86
2022-10-18T04:58:37.196Z,18.83
2022-10-18T05:03:38.652Z,18.47
2022-10-18T05:08:40.100Z,18.88
2022-10-18T05:13:41.547Z,19.01
2022-10-18T05:18:45.476Z,18.88
2022-10-18T05:23:46.920Z,18.83
2022-10-18T05:28:50.175Z,18.91
2022-10-18T05:33:51.668Z,18.46
2022-10-18T05:38:53.596Z,18.74
2022-10-18T05:43:55.057Z,18.19
2022-10-18T05:48:56.522Z,18.30
2022-10-18T05:53:58.729Z,17.74
2022-10-18T05:59:00.185Z,18.44
2022-10-18T06:04:01.641Z,18.02
2022-10-18T06:09:03.453Z,18.01
2022-10-18T06:14:05.146Z,17.98
2022-10-18T06:19:06.604Z,18.18
2022-10-18T06:24:08.064Z,18.10
2022-10-18T06:29:09.611Z,17.90
2022-10-18T06:34:11.114Z,18.20
2022-10-18T06:39:12.596Z,17.79
2022-10-18T06:44:14.673Z,17.45
2022-10-18T06:49:19.000Z,18.33
2022-10-18T06:54:20.966Z,18.39
2022-10-18T06:59:23.588Z,18.26
2022-10-18T07:04:29.309Z,18.68
2022-10-18T07:09:31.030Z,18.65
2022-10-18T07:14:32.531Z,18.52
2022-10-18T07:19:33.979Z,18.37
2022-10-18T07:24:35.437Z,18.61
2022-10-18T07:29:40.419Z,18.41
2022-10-18T07:34:41.876Z,18.57
2022-10-18T07:39:43.342Z,18.73
2022-10-18T07:44:44.792Z,18.71
2022-10-18T07:49:46.277Z,18.50
2022-10-18T07:54:47.752Z,18.91
2022-10-18T07:59:56.005Z,18.97
2022-10-18T08:04:57.475Z,19.09
2022-10-18T08:09:58.920Z,18.70
2022-10-18T08:15:00.378Z,18.85
2022-10-18T08:20:12.435Z,18.94
2022-10-18T08:25:23.332Z,18.75
2022-10-18T08:30:24.944Z,18.88
2022-10-18T08:35:26.437Z,18.88
2022-10-18T08:40:28.077Z,19.30
2022-10-18T08:45:42.044Z,19.12
2022-10-18T08:50:44.380Z,19.53
2022-10-18T08:56:21.620Z,19.58
2022-10-18T09:01:52.853Z,19.90
2022-10-18T09:07:14.669Z,19.74
2022-10-18T09:12:21.052Z,19.91
2022-10-18T09:17:35.374Z,20.10
2022-10-18T09:22:53.289Z,19.78
2022-10-18T09:27:56.748Z,19.95
2022-10-18T09:33:20.640Z,19.88
2022-10-18T09:38:23.323Z,19.37
2022-10-18T09:43:48.107Z,19.49
2022-10-18T09:48:59.562Z,19.56
2022-10-18T09:54:16.574Z,19.71
2022-10-18T09:59:36.432Z,19.78
2022-10-18T10:04:37.889Z,19.65
2022-10-18T10:09:49.154Z,19.54
2022-10-18T10:14:50.608Z,19.64
2022-10-18T10:20:03.621Z,19.68
2022-10-18T10:25:05.419Z,19.54
2022-10-18T10:30:22.581Z,19.55
2022-10-18T10:35:52.638Z,19.29
2022-10-18T10:40:52.631Z,19.80
2022-10-18T10:46:03.023Z,19.39
2022-10-18T10:51:07.222Z,19.36
2022-10-18T10:56:23.088Z,19.24
2022-10-18T11:01:26.896Z,19.27
2022-10-18T11:06:42.180Z,19.10
2022-10-18T11:11:46.758Z,19.32
2022-10-18T11:17:03.087Z,19.52
2022-10-18T11:22:10.598Z,19.40
2022-10-18T11:27:30.896Z,19.74
2022-10-18T11:32:58.479Z,19.55
2022-10-18T11:38:23.283Z,19.59
2022-10-18T11:43:57.181Z,19.06
2022-10-18T11:49:21.012Z,19.07
2022-10-18T11:54:25.067Z,19.56
2022-10-18T11:59:39.511Z,19.24
2022-10-18T12:04:58.552Z,19.15
2022-10-18T12:10:09.843Z,19.22
2022-10-18T12:15:18.299Z,19.11
2022-10-18T12:20:21.421Z,19.48
2022-10-18T12:25:22.878Z,19.51
2022-10-18T12:30:38.976Z,19.19
2022-10-18T12:36:14.987Z,19.55
2022-10-18T12:41:21.711Z,19.62
2022-10-18T12:46:23.264Z,19.50
2022-10-18T12:51:24.805Z,19.65
2022-10-18T12:56:28.948Z,19.40
2022-10-18T13:01:52.932Z,19.44
2022-10-18T13:07:21.647Z,19.31
2022-10-18T13:12:23.013Z,19.23
2022-10-18T13:17:39.572Z,19.60
2022-10-18T13:22:59.568Z,19.45
2022-10-18T13:28:16.076Z,19.18
2022-10-18T13:33:33.170Z,18.61
2022-10-18T13:38:50.434Z,18.54
2022-10-18T13:44:22.531Z,18.39
2022-10-18T13:49:39.109Z,18.09
2022-10-18T13:54:46.989Z,17.93
2022-10-18T14:00:06.689Z,18.21
2022-10-18T14:05:25.184Z,18.90
2022-10-18T14:10:50.194Z,18.47
2022-10-18T14:16:04.766Z,18.16
2022-10-18T14:21:15.281Z,18.06
2022-10-18T14:26:19.817Z,17.95
2022-10-18T14:31:21.267Z,18.18
2022-10-18T14:36:24.781Z,18.20
2022-10-18T14:41:33.250Z,18.42
2022-10-18T14:46:34.709Z,18.58
2022-10-18T14:51:36.226Z,18.89
2022-10-18T14:56:38.601Z,18.52
2022-10-18T15:01:39.998Z,18.50
2022-10-18T15:06:44.488Z,18.66
2022-10-18T15:11:45.944Z,18.55
2022-10-18T15:16:47.476Z,18.48
2022-10-18T15:22:19.843Z,18.48
2022-10-18T15:27:23.975Z,18.50
2022-10-18T15:32:29.770Z,18.32
2022-10-18T15:37:35.504Z,18.21
2022-10-18T15:42:37.537Z,17.96
2022-10-18T15:47:38.989Z,17.77
2022-10-18T15:52:41.373Z,17.81
2022-10-18T15:57:42.821Z,17.48
2022-10-18T16:02:44.262Z,17.08
2022-10-18T16:07:45.717Z,16.79
2022-10-18T16:12:47.207Z,17.03
2022-10-18T16:17:48.826Z,17.04
2022-10-18T16:22:50.303Z,16.90
2022-10-18T16:27:51.763Z,16.81
2022-10-18T16:32:53.222Z,16.70
2022-10-18T16:37:54.690Z,17.04
2022-10-18T16:42:56.134Z,16.75
2022-10-18T16:47:57.589Z,16.35
2022-10-18T16:52:59.081Z,16.30
2022-10-18T16:58:00.545Z,16.10
2022-10-18T17:03:02.096Z,16.13
2022-10-18T17:08:03.789Z,15.95
2022-10-18T17:13:05.256Z,16.01
2022-10-18T17:18:07.363Z,15.96
2022-10-18T17:23:09.333Z,16.06
2022-10-18T17:28:13.004Z,16.01
2022-10-18T17:33:14.762Z,16.09
2022-10-18T17:38:16.236Z,15.78
2022-10-18T17:43:17.707Z,15.95
2022-10-18T17:48:19.436Z,16.08
2022-10-18T17:53:25.057Z,16.30
2022-10-18T17:58:26.500Z,16.28
2022-10-18T18:03:28.001Z,16.54
2022-10-18T18:08:30.768Z,16.20
2022-10-18T18:13:32.234Z,16.68
2022-10-18T18:18:34.025Z,16.91
2022-10-18T18:23:35.489Z,17.29
2022-10-18T18:28:37.110Z,17.19
2022-10-18T18:33:38.694Z,17.44
2022-10-18T18:38:42.306Z,17.33
2022-10-18T18:43:45.692Z,16.95
2022-10-18T18:48:47.144Z,17.09
2022-10-18T18:53:48.739Z,16.92
2022-10-18T18:58:51.344Z,16.79
2022-10-18T19:03:53.845Z,16.68
2022-10-18T19:09:01.118Z,16.51
2022-10-18T19:14:02.645Z,16.65
2022-10-18T19:19:07.751Z,16.52
2022-10-18T19:24:09.256Z,16.60
2022-10-18T19:29:13.357Z,16.51
2022-10-18T19:34:15.276Z,16.47
2022-10-18T19:39:18.365Z,16.56
2022-10-18T19:44:20.042Z,16.52
2022-10-18T19:49:21.576Z,16.62
2022-10-18T19:54:23.104Z,16.65
2022-10-18T19:59:24.675Z,16.73
2022-10-18T20:04:26.128Z,16.59
2022-10-18T20:09:27.595Z,16.76
2022-10-18T20:14:29.049Z,16.79
2022-10-18T20:19:30.763Z,16.66
2022-10-18T20:24:32.232Z,16.63
2022-10-18T20:29:35.432Z,16.56
2022-10-18T20:34:36.885Z,16.51
2022-10-18T20:39:40.387Z,17.05
2022-10-18T20:44:43.393Z,17.13
2022-10-18T20:49:44.844Z,17.02
2022-10-18T20:54:46.311Z,17.35
2022-10-18T20:59:48.658Z,17.02
2022-10-18T21:04:50.108Z,17.11
2022-10-18T21:09:51.761Z,17.25
2022-10-18T21:14:53.217Z,16.93
2022-10-18T21:19:54.675Z,16.77
2022-10-18T21:24:56.123Z,16.87
2022-10-18T21:29:57.573Z,16.85
2022-10-18T21:34:59.958Z,16.86
2022-10-18T21:40:01.484Z,16.96
2022-10-18T21:45:03.001Z,16.93
2022-10-18T21:50:04.520Z,16.94
2022-10-18T21:55:07.155Z,17.03
2022-10-18T22:00:09.133Z,16.91
2022-10-18T22:05:12.227Z,17.12
2022-10-18T22:10:13.821Z,16.97
2022-10-18T22:15:15.333Z,17.29
2022-10-18T22:20:16.802Z,17.42
2022-10-18T22:25:18.251Z,17.49
2022-10-18T22:30:19.696Z,17.13
2022-10-18T22:35:21.197Z,17.64
2022-10-18T22:40:22.644Z,17.50
2022-10-18T22:45:24.105Z,17.56
2022-10-18T22:50:25.569Z,17.36
2022-10-18T22:55:27.054Z,17.42
2022-10-18T23:00:28.586Z,17.38
2022-10-18T23:05:30.083Z,17.18
2022-10-18T23:10:31.545Z,17.18
2022-10-18T23:15:33.653Z,17.15
2022-10-18T23:20:35.232Z,17.20
2022-10-18T23:25:37.250Z,16.99
2022-10-18T23:30:38.716Z,17.11
2022-10-18T23:35:40.166Z,17.09
2022-10-18T23:40:41.609Z,17.19
2022-10-18T23:45:44.173Z,17.17
2022-10-18T23:50:45.497Z,16.90
2022-10-18T23:55:59.172Z,16.98
